Time;durP1;ratioP1;P1;durP2;ratioP2;P2;SDS_P1;SDS_P2;PMS_P1;PMS_P2;Temp;Humidity;BMP_temperature;BMP_pressure;BME280_temperature;BME280_humidity;BME280_pressure;Samples;Min_cycle;Max_cycle;Signal;HPM_P1;HPM_P2
2023/01/09 00:00:38;;;;;;;;;;;10.00;99.90;;;;;;2022520;29;20960;-73
2023/01/09 00:01:40;;;;;;;;;;;10.00;99.90;;;;;;2025239;29;20344;-72
2023/01/09 00:02:43;;;;;;;;;;;10.00;99.90;;;;;;2025448;29;19922;-72
2023/01/09 00:03:43;;;;;;;;;;;10.00;99.90;;;;;;2031057;29;20394;-72
2023/01/09 00:04:44;;;;;;;;;;;10.00;99.90;;;;;;2032405;29;20663;-73
2023/01/09 00:05:44;;;;;;;;;;;10.00;99.90;;;;;;2023224;29;19918;-73
2023/01/09 00:06:52;;;;;;;;;;;10.00;99.90;;;;;;2026326;29;19915;-72
2023/01/09 00:07:53;;;;;;;;;;;10.00;99.90;;;;;;2026183;29;20441;-72
2023/01/09 00:08:53;;;;;;;;;;;10.00;99.90;;;;;;2023612;29;20579;-72
2023/01/09 00:09:53;;;;;;;;;;;10.00;99.90;;;;;;2024665;29;19955;-72
2023/01/09 00:10:54;;;;;;;;;;;9.90;99.90;;;;;;2023944;29;20413;-72
2023/01/09 00:11:55;;;;;;;;;;;9.90;99.90;;;;;;2023717;29;19918;-72
2023/01/09 00:12:55;;;;;;;;;;;9.90;99.90;;;;;;2024365;29;19915;-72
2023/01/09 00:13:55;;;;;;;;;;;9.90;99.90;;;;;;2024494;29;19955;-72
2023/01/09 00:14:56;;;;;;;;;;;9.90;99.90;;;;;;2023222;29;19912;-72
2023/01/09 00:15:58;;;;;;;;;;;9.90;99.90;;;;;;2023677;29;19908;-72
2023/01/09 00:16:59;;;;;;;;;;;9.90;99.90;;;;;;2024408;29;20324;-72
2023/01/09 00:17:59;;;;;;;;;;;9.90;99.90;;;;;;2025933;29;19982;-72
2023/01/09 00:18:59;;;;;;;;;;;9.90;99.90;;;;;;2024520;29;19966;-72
2023/01/09 00:20:00;;;;;;;;;;;9.90;99.90;;;;;;2026276;29;19918;-72
2023/01/09 00:21:02;;;;;;;;;;;9.90;99.90;;;;;;2026498;29;19915;-72
2023/01/09 00:22:02;;;;;;;;;;;9.90;99.90;;;;;;2023515;29;19911;-72
2023/01/09 00:23:03;;;;;;;;;;;9.90;99.90;;;;;;2021954;29;20597;-72
2023/01/09 00:24:03;;;;;;;;;;;9.90;99.90;;;;;;2026190;29;20002;-72
2023/01/09 00:25:04;;;;;;;;;;;9.80;99.90;;;;;;2023480;29;20014;-72
2023/01/09 00:26:12;;;;;;;;;;;9.90;99.90;;;;;;2025000;29;19915;-72
2023/01/09 00:27:13;;;;;;;;;;;9.80;99.90;;;;;;2023732;29;20446;-73
2023/01/09 00:28:13;;;;;;;;;;;9.80;99.90;;;;;;2024449;29;20347;-72
2023/01/09 00:29:14;;;;;;;;;;;9.80;99.90;;;;;;2024017;29;19975;-72
2023/01/09 00:30:14;;;;;;;;;;;9.80;99.90;;;;;;2024014;29;20295;-72
2023/01/09 00:31:15;;;;;;;;;;;9.80;99.90;;;;;;2025428;29;19972;-72
2023/01/09 00:32:15;;;;;;;;;;;9.80;99.90;;;;;;2024057;29;19915;-73
2023/01/09 00:33:16;;;;;;;;;;;9.80;99.90;;;;;;2024106;29;19915;-73
2023/01/09 00:34:16;;;;;;;;;;;9.80;99.90;;;;;;2025104;29;20010;-72
2023/01/09 00:35:17;;;;;;;;;;;9.70;99.90;;;;;;2022636;29;19921;-72
2023/01/09 00:36:17;;;;;;;;;;;9.70;99.90;;;;;;2025990;29;19915;-72
2023/01/09 00:37:18;;;;;;;;;;;9.70;99.90;;;;;;2025898;29;19919;-73
2023/01/09 00:38:18;;;;;;;;;;;9.70;99.90;;;;;;2025366;29;20388;-72
2023/01/09 00:39:19;;;;;;;;;;;9.70;99.90;;;;;;2024433;29;19923;-72
2023/01/09 00:40:20;;;;;;;;;;;9.70;99.90;;;;;;2023984;29;19912;-73
2023/01/09 00:41:28;;;;;;;;;;;9.70;99.90;;;;;;2023425;29;19919;-72
2023/01/09 00:42:30;;;;;;;;;;;9.70;99.90;;;;;;2024726;29;19962;-73
2023/01/09 00:43:32;;;;;;;;;;;9.70;99.90;;;;;;2024343;29;19926;-73
2023/01/09 00:44:40;;;;;;;;;;;9.70;99.90;;;;;;2022406;29;20182;-73
2023/01/09 00:45:40;;;;;;;;;;;9.70;99.90;;;;;;2025711;29;20291;-72
2023/01/09 00:46:42;;;;;;;;;;;9.70;99.90;;;;;;2023484;29;19915;-72
2023/01/09 00:47:46;;;;;;;;;;;9.60;99.90;;;;;;2024226;29;19957;-72
2023/01/09 00:48:47;;;;;;;;;;;9.70;99.90;;;;;;2024130;29;19918;-72
2023/01/09 00:49:48;;;;;;;;;;;9.60;99.90;;;;;;2023505;29;21870;-73
2023/01/09 00:50:49;;;;;;;;;;;9.60;99.90;;;;;;2024602;29;19915;-72
2023/01/09 00:51:50;;;;;;;;;;;9.60;99.90;;;;;;2024332;29;19950;-73
2023/01/09 00:52:52;;;;;;;;;;;9.60;99.90;;;;;;2024907;29;19916;-73
2023/01/09 00:53:53;;;;;;;;;;;9.60;99.90;;;;;;2024182;29;19915;-73
2023/01/09 00:54:53;;;;;;;;;;;9.60;99.90;;;;;;2024653;29;19926;-72
2023/01/09 00:55:54;;;;;;;;;;;9.60;99.90;;;;;;2022659;29;20449;-73
2023/01/09 00:56:55;;;;;;;;;;;9.60;99.90;;;;;;2025440;29;19911;-73
2023/01/09 00:57:55;;;;;;;;;;;9.60;99.90;;;;;;2022413;29;19979;-72
2023/01/09 00:58:56;;;;;;;;;;;9.60;99.90;;;;;;2024031;29;19916;-72
2023/01/09 00:59:57;;;;;;;;;;;9.60;99.90;;;;;;2024795;29;19915;-72
2023/01/09 01:00:57;;;;;;;;;;;9.60;99.90;;;;;;2024107;29;19907;-72
2023/01/09 01:01:58;;;;;;;;;;;9.60;99.90;;;;;;2025064;29;19923;-72
2023/01/09 01:02:58;;;;;;;;;;;9.60;99.90;;;;;;2021528;29;19916;-72
2023/01/09 01:07:37;;;;;;;;;;;9.60;99.90;;;;;;2025294;29;20020;-72
2023/01/09 01:07:58;;;;;;;;;;;9.60;99.90;;;;;;2025248;29;20367;-71
2023/01/09 01:08:58;;;;;;;;;;;9.60;99.90;;;;;;2023830;29;20275;-71
2023/01/09 01:09:59;;;;;;;;;;;9.50;99.90;;;;;;2024424;29;19918;-71
2023/01/09 01:11:03;;;;;;;;;;;9.50;99.90;;;;;;2024292;29;19918;-71
2023/01/09 01:12:05;;;;;;;;;;;9.50;99.90;;;;;;2025222;29;19930;-71
2023/01/09 01:13:06;;;;;;;;;;;9.50;99.90;;;;;;2025054;29;20011;-71
2023/01/09 01:14:06;;;;;;;;;;;9.50;99.90;;;;;;2023442;29;19959;-71
2023/01/09 01:15:08;;;;;;;;;;;9.50;99.90;;;;;;2024644;29;19912;-71
2023/01/09 01:16:10;;;;;;;;;;;9.50;99.90;;;;;;2024406;29;20662;-71
2023/01/09 01:17:10;;;;;;;;;;;9.50;99.90;;;;;;2025232;29;19907;-71
2023/01/09 01:18:11;;;;;;;;;;;9.50;99.90;;;;;;2024769;29;19922;-71
2023/01/09 01:19:12;;;;;;;;;;;9.50;99.90;;;;;;2023802;29;20343;-71
2023/01/09 01:20:14;;;;;;;;;;;9.50;99.90;;;;;;2023272;29;19920;-71
2023/01/09 01:21:14;;;;;;;;;;;9.60;99.90;;;;;;2024426;29;19915;-71
2023/01/09 01:22:15;;;;;;;;;;;9.50;99.90;;;;;;2024230;29;19969;-71
2023/01/09 01:23:16;;;;;;;;;;;9.50;99.90;;;;;;2026425;29;19914;-71
2023/01/09 01:24:18;;;;;;;;;;;9.50;99.90;;;;;;2021885;29;19973;-71
2023/01/09 01:25:19;;;;;;;;;;;9.50;99.90;;;;;;2019517;29;19919;-71
2023/01/09 01:26:19;;;;;;;;;;;9.50;99.90;;;;;;2025071;29;20370;-71
2023/01/09 01:27:20;;;;;;;;;;;9.50;99.90;;;;;;2023709;29;19965;-71
2023/01/09 01:28:20;;;;;;;;;;;9.50;99.90;;;;;;2025467;29;19919;-71
2023/01/09 01:29:20;;;;;;;;;;;9.50;99.90;;;;;;2024118;29;20022;-71
2023/01/09 01:30:21;;;;;;;;;;;9.50;99.90;;;;;;2025060;29;19919;-71
2023/01/09 01:31:21;;;;;;;;;;;9.50;99.90;;;;;;2025726;29;19934;-71
2023/01/09 01:32:22;;;;;;;;;;;9.50;99.90;;;;;;2025040;29;20002;-71
2023/01/09 01:33:22;;;;;;;;;;;9.50;99.90;;;;;;2027009;29;19915;-71
2023/01/09 01:34:23;;;;;;;;;;;9.40;99.90;;;;;;2027238;29;19962;-71
2023/01/09 01:35:25;;;;;;;;;;;9.40;99.90;;;;;;2025960;29;19908;-71
2023/01/09 01:36:25;;;;;;;;;;;9.40;99.90;;;;;;2025235;29;19918;-71
2023/01/09 01:37:26;;;;;;;;;;;9.40;99.90;;;;;;2025190;29;19911;-71
2023/01/09 01:38:27;;;;;;;;;;;9.40;99.90;;;;;;2025037;29;19911;-71
2023/01/09 01:39:27;;;;;;;;;;;9.40;99.90;;;;;;2024643;29;20026;-71
2023/01/09 01:40:28;;;;;;;;;;;9.40;99.90;;;;;;2026148;29;19930;-71
2023/01/09 01:41:29;;;;;;;;;;;9.40;99.90;;;;;;2025483;29;20368;-71
2023/01/09 01:42:30;;;;;;;;;;;9.40;99.90;;;;;;2025119;29;20352;-71
2023/01/09 01:44:05;;;;;;;;;;;9.40;99.90;;;;;;2026248;29;19973;-71
2023/01/09 01:45:11;;;;;;;;;;;9.40;99.90;;;;;;2001452;29;19920;-71
2023/01/09 01:46:12;;;;;;;;;;;9.40;99.90;;;;;;2001171;29;19908;-71
2023/01/09 01:47:13;;;;;;;;;;;9.50;99.90;;;;;;2005934;29;20400;-71
2023/01/09 01:48:18;;;;;;;;;;;9.40;99.90;;;;;;2026013;29;19919;-71
2023/01/09 01:49:19;;;;;;;;;;;9.40;99.90;;;;;;2025924;29;19966;-71
2023/01/09 01:50:19;;;;;;;;;;;9.40;99.90;;;;;;2025891;29;19915;-71
2023/01/09 01:51:21;;;;;;;;;;;9.40;99.90;;;;;;2031090;29;20041;-71
2023/01/09 01:52:22;;;;;;;;;;;9.40;99.90;;;;;;2031939;29;19907;-71
2023/01/09 01:53:23;;;;;;;;;;;9.40;99.90;;;;;;2024015;29;19993;-71
2023/01/09 01:54:25;;;;;;;;;;;9.40;99.90;;;;;;2024751;29;19920;-71
2023/01/09 01:55:25;;;;;;;;;;;9.30;99.90;;;;;;2024296;29;19916;-71
2023/01/09 01:56:27;;;;;;;;;;;9.30;99.90;;;;;;2026253;29;19938;-71
2023/01/09 01:57:29;;;;;;;;;;;9.30;99.90;;;;;;2025390;29;19982;-71
2023/01/09 01:58:30;;;;;;;;;;;9.30;99.90;;;;;;2023264;29;19925;-71
2023/01/09 01:59:39;;;;;;;;;;;9.30;99.90;;;;;;2025222;29;19923;-71
2023/01/09 02:00:42;;;;;;;;;;;9.30;99.90;;;;;;2025717;29;19915;-71
2023/01/09 02:01:44;;;;;;;;;;;9.30;99.90;;;;;;2025550;29;19915;-71
2023/01/09 02:02:45;;;;;;;;;;;9.30;99.90;;;;;;2026400;29;19967;-71
2023/01/09 02:03:45;;;;;;;;;;;9.30;99.90;;;;;;2025816;29;19922;-71
2023/01/09 02:04:47;;;;;;;;;;;9.30;99.90;;;;;;2023917;29;19916;-71
2023/01/09 02:05:48;;;;;;;;;;;9.30;99.90;;;;;;2024711;29;19961;-71
2023/01/09 02:06:50;;;;;;;;;;;9.30;99.90;;;;;;2028171;29;20423;-71
2023/01/09 02:07:51;;;;;;;;;;;9.30;99.90;;;;;;2024939;29;19915;-71
2023/01/09 02:08:51;;;;;;;;;;;9.30;99.90;;;;;;2024589;29;19923;-71
2023/01/09 02:09:52;;;;;;;;;;;9.20;99.90;;;;;;2024512;29;19911;-71
2023/01/09 02:10:53;;;;;;;;;;;9.30;99.90;;;;;;2025450;29;20296;-71
2023/01/09 02:11:55;;;;;;;;;;;9.20;99.90;;;;;;2031799;29;19915;-71
2023/01/09 02:12:56;;;;;;;;;;;9.30;99.90;;;;;;2024333;29;19920;-71
2023/01/09 02:13:57;;;;;;;;;;;9.20;99.90;;;;;;2027196;29;20407;-71
2023/01/09 02:15:01;;;;;;;;;;;9.20;99.90;;;;;;2025207;29;19946;-71
2023/01/09 02:16:01;;;;;;;;;;;9.30;99.90;;;;;;2023951;29;19912;-71
2023/01/09 02:17:20;;;;;;;;;;;9.30;99.90;;;;;;2026236;29;19962;-71
2023/01/09 02:18:26;;;;;;;;;;;9.30;99.90;;;;;;2025068;29;19920;-71
2023/01/09 02:19:46;;;;;;;;;;;9.30;99.90;;;;;;2025310;29;19911;-71
2023/01/09 02:20:51;;;;;;;;;;;9.30;99.90;;;;;;2023213;29;19919;-71
2023/01/09 02:22:06;;;;;;;;;;;9.30;99.90;;;;;;2026552;29;19907;-71
2023/01/09 02:23:26;;;;;;;;;;;9.30;99.90;;;;;;2024346;29;20299;-71
2023/01/09 02:24:29;;;;;;;;;;;9.30;99.90;;;;;;2024442;29;19922;-71
2023/01/09 02:25:50;;;;;;;;;;;9.30;99.90;;;;;;2025636;29;20328;-71
2023/01/09 02:26:56;;;;;;;;;;;9.30;99.90;;;;;;2023691;29;19918;-71
2023/01/09 02:27:57;;;;;;;;;;;9.20;99.90;;;;;;2024792;29;19918;-71
2023/01/09 02:29:08;;;;;;;;;;;9.30;99.90;;;;;;2031986;29;19978;-71
2023/01/09 02:30:20;;;;;;;;;;;9.20;99.90;;;;;;2030448;29;19915;-71
2023/01/09 02:31:23;;;;;;;;;;;9.20;99.90;;;;;;2022982;29;19922;-71
2023/01/09 02:32:31;;;;;;;;;;;9.20;99.90;;;;;;2026113;29;19963;-71
2023/01/09 02:33:32;;;;;;;;;;;9.20;99.90;;;;;;2024465;29;19963;-71
2023/01/09 02:34:43;;;;;;;;;;;9.20;99.90;;;;;;2026748;29;19921;-71
2023/01/09 02:35:43;;;;;;;;;;;9.20;99.90;;;;;;2024779;29;20009;-71
2023/01/09 02:36:50;;;;;;;;;;;9.20;99.90;;;;;;2026736;29;19915;-71
2023/01/09 02:37:56;;;;;;;;;;;9.20;99.90;;;;;;2025017;29;20332;-71
2023/01/09 02:39:09;;;;;;;;;;;9.20;99.90;;;;;;2024140;29;19908;-71
2023/01/09 02:40:21;;;;;;;;;;;9.20;99.90;;;;;;2024332;29;19915;-71
2023/01/09 02:41:27;;;;;;;;;;;9.10;99.90;;;;;;2022981;29;20568;-71
2023/01/09 02:42:28;;;;;;;;;;;9.10;99.90;;;;;;2026757;29;19911;-71
2023/01/09 02:43:30;;;;;;;;;;;9.10;99.90;;;;;;2023586;29;19915;-71
2023/01/09 02:44:32;;;;;;;;;;;9.10;99.90;;;;;;2030605;29;20477;-71
2023/01/09 02:45:33;;;;;;;;;;;9.10;99.90;;;;;;2031183;29;20112;-71
2023/01/09 02:46:33;;;;;;;;;;;9.10;99.90;;;;;;2024327;29;19920;-71
2023/01/09 02:47:41;;;;;;;;;;;9.10;99.90;;;;;;2025149;29;20477;-71
2023/01/09 02:48:43;;;;;;;;;;;9.10;99.90;;;;;;2025970;29;20512;-71
2023/01/09 02:49:47;;;;;;;;;;;9.10;99.90;;;;;;2024240;29;19919;-71
2023/01/09 02:50:54;;;;;;;;;;;9.10;99.90;;;;;;2027036;29;19915;-71
2023/01/09 02:52:14;;;;;;;;;;;9.10;99.90;;;;;;2025469;29;19911;-71
2023/01/09 02:53:33;;;;;;;;;;;9.10;99.90;;;;;;2024453;29;19915;-71
2023/01/09 02:54:33;;;;;;;;;;;9.10;99.90;;;;;;2022460;29;19926;-71
2023/01/09 02:55:40;;;;;;;;;;;9.10;99.90;;;;;;2023929;29;19919;-71
2023/01/09 02:56:46;;;;;;;;;;;9.10;99.90;;;;;;2024077;29;19916;-71
2023/01/09 02:58:05;;;;;;;;;;;9.10;99.90;;;;;;2021778;29;19957;-71
2023/01/09 02:59:32;;;;;;;;;;;9.10;99.90;;;;;;2025071;29;19911;-71
2023/01/09 03:00:50;;;;;;;;;;;9.10;99.90;;;;;;2010344;29;19970;-71
2023/01/09 03:01:51;;;;;;;;;;;9.10;99.90;;;;;;2024407;29;19919;-71
2023/01/09 03:02:54;;;;;;;;;;;9.10;99.90;;;;;;2030023;29;19919;-71
2023/01/09 03:04:00;;;;;;;;;;;9.10;99.90;;;;;;2030533;29;20041;-71
2023/01/09 03:05:10;;;;;;;;;;;9.10;99.90;;;;;;2025289;29;19963;-71
2023/01/09 03:06:24;;;;;;;;;;;9.10;99.90;;;;;;2025495;29;19952;-71
2023/01/09 03:07:29;;;;;;;;;;;9.10;99.90;;;;;;2025063;29;19919;-71
2023/01/09 03:08:36;;;;;;;;;;;9.10;99.90;;;;;;2025518;29;20383;-71
2023/01/09 03:09:39;;;;;;;;;;;9.10;99.90;;;;;;2023123;29;19935;-71
2023/01/09 03:10:58;;;;;;;;;;;9.10;99.90;;;;;;2023622;29;19959;-71
2023/01/09 03:12:02;;;;;;;;;;;9.10;99.90;;;;;;2024183;29;19915;-71
2023/01/09 03:13:04;;;;;;;;;;;9.10;99.90;;;;;;2023828;29;19919;-71
2023/01/09 03:14:08;;;;;;;;;;;9.10;99.90;;;;;;2024876;29;19959;-71
2023/01/09 03:15:11;;;;;;;;;;;9.00;99.90;;;;;;2023612;29;19921;-71
2023/01/09 03:16:13;;;;;;;;;;;9.00;99.90;;;;;;2025502;29;19911;-71
2023/01/09 03:17:16;;;;;;;;;;;9.00;99.90;;;;;;2024946;29;20059;-71
2023/01/09 03:18:18;;;;;;;;;;;9.00;99.90;;;;;;2029645;29;19907;-71
2023/01/09 03:19:20;;;;;;;;;;;9.00;99.90;;;;;;2027948;29;19915;-71
2023/01/09 03:20:23;;;;;;;;;;;9.00;99.90;;;;;;2025089;29;19911;-71
2023/01/09 03:21:24;;;;;;;;;;;9.00;99.90;;;;;;2023740;29;19998;-71
2023/01/09 03:22:25;;;;;;;;;;;9.00;99.90;;;;;;2024418;29;19918;-71
2023/01/09 03:23:25;;;;;;;;;;;9.00;99.90;;;;;;2022381;29;19916;-71
2023/01/09 03:24:26;;;;;;;;;;;9.00;99.90;;;;;;2023520;29;19919;-71
2023/01/09 03:25:27;;;;;;;;;;;9.00;99.90;;;;;;2023359;29;19919;-71
2023/01/09 03:26:28;;;;;;;;;;;8.90;99.90;;;;;;2025552;29;20665;-71
2023/01/09 03:27:29;;;;;;;;;;;8.90;99.90;;;;;;2024693;29;20646;-71
2023/01/09 03:28:29;;;;;;;;;;;8.90;99.90;;;;;;2023915;29;19918;-71
2023/01/09 03:29:30;;;;;;;;;;;8.90;99.90;;;;;;2024091;29;19912;-71
2023/01/09 03:30:32;;;;;;;;;;;8.90;99.90;;;;;;2023972;29;19919;-71
2023/01/09 03:31:32;;;;;;;;;;;8.90;99.90;;;;;;2025075;29;19915;-71
2023/01/09 03:32:33;;;;;;;;;;;8.90;99.90;;;;;;2024765;29;19916;-71
2023/01/09 03:33:33;;;;;;;;;;;8.90;99.90;;;;;;2023368;29;20580;-71
2023/01/09 03:34:34;;;;;;;;;;;8.90;99.90;;;;;;2022126;29;20032;-71
2023/01/09 03:35:34;;;;;;;;;;;8.90;99.90;;;;;;2027262;29;19919;-71
2023/01/09 03:36:35;;;;;;;;;;;8.90;99.90;;;;;;2025042;29;20468;-71
2023/01/09 03:37:35;;;;;;;;;;;8.90;99.90;;;;;;2025601;29;19911;-71
2023/01/09 03:38:36;;;;;;;;;;;8.90;99.90;;;;;;2024298;29;20332;-71
2023/01/09 03:39:36;;;;;;;;;;;8.90;99.90;;;;;;2025920;29;20332;-71
2023/01/09 03:40:37;;;;;;;;;;;8.90;99.90;;;;;;2026376;29;20278;-71
2023/01/09 03:41:37;;;;;;;;;;;8.90;99.90;;;;;;2026364;29;19997;-71
2023/01/09 03:42:38;;;;;;;;;;;8.90;99.90;;;;;;2024797;29;19981;-71
2023/01/09 03:43:38;;;;;;;;;;;8.90;99.90;;;;;;2024520;29;20005;-71
2023/01/09 03:44:39;;;;;;;;;;;8.90;99.90;;;;;;2026255;29;19907;-71
2023/01/09 03:45:39;;;;;;;;;;;8.90;99.90;;;;;;2022718;29;20046;-71
2023/01/09 03:46:40;;;;;;;;;;;8.90;99.90;;;;;;2024235;29;19918;-71
2023/01/09 03:47:40;;;;;;;;;;;8.90;99.90;;;;;;2024331;29;19919;-71
2023/01/09 03:48:41;;;;;;;;;;;8.90;99.90;;;;;;2025134;29;19911;-71
2023/01/09 03:49:41;;;;;;;;;;;8.90;99.90;;;;;;2024068;29;19915;-71
2023/01/09 03:50:44;;;;;;;;;;;8.90;99.90;;;;;;2024702;29;19911;-71
2023/01/09 03:51:45;;;;;;;;;;;8.90;99.90;;;;;;2024094;29;19921;-71
2023/01/09 03:52:45;;;;;;;;;;;8.90;99.90;;;;;;2022375;29;19915;-71
2023/01/09 03:53:46;;;;;;;;;;;8.90;99.90;;;;;;2026102;29;20268;-71
2023/01/09 03:54:46;;;;;;;;;;;8.90;99.90;;;;;;2021570;29;20036;-71
2023/01/09 03:55:51;;;;;;;;;;;8.90;99.90;;;;;;2018829;29;20298;-71
2023/01/09 03:56:51;;;;;;;;;;;8.90;99.90;;;;;;2024517;29;19968;-71
2023/01/09 03:57:52;;;;;;;;;;;8.90;99.90;;;;;;2022223;29;20001;-71
2023/01/09 03:58:52;;;;;;;;;;;8.90;99.90;;;;;;2024953;29;19955;-71
2023/01/09 03:59:52;;;;;;;;;;;8.90;99.90;;;;;;2023626;29;19983;-70
2023/01/09 04:01:01;;;;;;;;;;;9.00;99.90;;;;;;2024725;29;20034;-71
2023/01/09 04:02:02;;;;;;;;;;;8.90;99.90;;;;;;2024039;29;19973;-71
2023/01/09 04:03:02;;;;;;;;;;;8.90;99.90;;;;;;2024254;29;19919;-71
2023/01/09 04:04:03;;;;;;;;;;;9.00;99.90;;;;;;2024658;29;19929;-71
2023/01/09 04:05:03;;;;;;;;;;;9.00;99.90;;;;;;2023628;29;20042;-71
2023/01/09 04:06:04;;;;;;;;;;;8.90;99.90;;;;;;2025126;29;19911;-71
2023/01/09 04:07:05;;;;;;;;;;;8.90;99.90;;;;;;2026094;29;19907;-71
2023/01/09 04:08:05;;;;;;;;;;;8.90;99.90;;;;;;2024839;29;19915;-71
2023/01/09 04:09:06;;;;;;;;;;;8.90;99.90;;;;;;2023273;29;19911;-71
2023/01/09 04:10:07;;;;;;;;;;;8.90;99.90;;;;;;2024537;29;19993;-71
2023/01/09 04:11:07;;;;;;;;;;;8.90;99.90;;;;;;2023139;29;19959;-71
2023/01/09 04:12:07;;;;;;;;;;;8.90;99.90;;;;;;2021502;29;19962;-71
2023/01/09 04:13:08;;;;;;;;;;;8.90;99.90;;;;;;2022821;29;19955;-71
2023/01/09 04:14:08;;;;;;;;;;;8.90;99.90;;;;;;2024427;29;19911;-71
2023/01/09 04:15:09;;;;;;;;;;;8.90;99.90;;;;;;2022287;29;19923;-71
2023/01/09 04:16:09;;;;;;;;;;;8.90;99.90;;;;;;2025285;29;19911;-71
2023/01/09 04:17:10;;;;;;;;;;;8.90;99.90;;;;;;2026924;29;19971;-71
2023/01/09 04:18:10;;;;;;;;;;;8.90;99.90;;;;;;2025954;29;20259;-71
2023/01/09 04:19:11;;;;;;;;;;;8.90;99.90;;;;;;2023807;29;20328;-71
2023/01/09 04:20:11;;;;;;;;;;;8.90;99.90;;;;;;2023360;29;19911;-71
2023/01/09 04:21:12;;;;;;;;;;;8.90;99.90;;;;;;2025693;29;20367;-71
2023/01/09 04:22:12;;;;;;;;;;;8.90;99.90;;;;;;2024344;29;20694;-71
2023/01/09 04:23:13;;;;;;;;;;;8.90;99.90;;;;;;2024701;29;20839;-71
2023/01/09 04:24:13;;;;;;;;;;;8.90;99.90;;;;;;2023325;29;19950;-71
2023/01/09 04:25:14;;;;;;;;;;;8.90;99.90;;;;;;2031089;29;19919;-71
2023/01/09 04:26:14;;;;;;;;;;;8.90;99.90;;;;;;2032087;29;19986;-70
2023/01/09 04:27:14;;;;;;;;;;;8.90;99.90;;;;;;2024185;29;20454;-70
2023/01/09 04:28:15;;;;;;;;;;;8.80;99.90;;;;;;2025596;29;19911;-71
2023/01/09 04:29:15;;;;;;;;;;;8.90;99.90;;;;;;2024456;29;20406;-71
2023/01/09 04:30:16;;;;;;;;;;;8.90;99.90;;;;;;2024525;29;19908;-71
2023/01/09 04:31:16;;;;;;;;;;;8.80;99.90;;;;;;2024453;29;20732;-71
2023/01/09 04:32:17;;;;;;;;;;;8.90;99.90;;;;;;2022705;29;19958;-71
2023/01/09 04:33:17;;;;;;;;;;;8.90;99.90;;;;;;2021949;29;20376;-71
2023/01/09 04:34:18;;;;;;;;;;;8.90;99.90;;;;;;2024227;29;19916;-71
2023/01/09 04:35:19;;;;;;;;;;;8.90;99.90;;;;;;2024069;29;20629;-71
2023/01/09 04:36:19;;;;;;;;;;;8.90;99.90;;;;;;2025203;29;20569;-71
2023/01/09 04:37:20;;;;;;;;;;;8.80;99.90;;;;;;2025106;29;20618;-71
2023/01/09 04:38:20;;;;;;;;;;;8.80;99.90;;;;;;2026079;29;19919;-71
2023/01/09 04:39:21;;;;;;;;;;;8.80;99.90;;;;;;2023880;29;20051;-71
2023/01/09 04:40:21;;;;;;;;;;;8.80;99.90;;;;;;2024766;29;20454;-71
2023/01/09 04:42:41;;;;;;;;;;;8.80;99.90;;;;;;2023762;29;19915;-71
2023/01/09 04:43:42;;;;;;;;;;;8.80;99.90;;;;;;2022808;29;19916;-71
2023/01/09 04:44:42;;;;;;;;;;;8.80;99.90;;;;;;2024889;29;19911;-71
2023/01/09 04:45:42;;;;;;;;;;;8.80;99.90;;;;;;2022801;29;19919;-71
2023/01/09 04:46:43;;;;;;;;;;;8.70;99.90;;;;;;2023514;29;19920;-71
2023/01/09 04:47:44;;;;;;;;;;;8.70;99.90;;;;;;2024321;29;19918;-71
2023/01/09 04:48:45;;;;;;;;;;;8.70;99.90;;;;;;2026375;29;19931;-71
2023/01/09 04:49:46;;;;;;;;;;;8.70;99.90;;;;;;2024742;29;19911;-71
2023/01/09 04:50:46;;;;;;;;;;;8.70;99.90;;;;;;2025260;29;19907;-71
2023/01/09 04:51:47;;;;;;;;;;;8.70;99.90;;;;;;2024750;29;19908;-71
2023/01/09 04:52:47;;;;;;;;;;;8.70;99.90;;;;;;2022837;29;19967;-71
2023/01/09 04:53:47;;;;;;;;;;;8.70;99.90;;;;;;2023706;29;19959;-71
2023/01/09 04:54:48;;;;;;;;;;;8.70;99.90;;;;;;2024307;29;19919;-71
2023/01/09 04:55:48;;;;;;;;;;;8.60;99.90;;;;;;2024305;29;20344;-71
2023/01/09 04:56:49;;;;;;;;;;;8.60;99.90;;;;;;2024919;29;19934;-71
2023/01/09 04:57:49;;;;;;;;;;;8.60;99.90;;;;;;2023902;29;20287;-71
2023/01/09 04:58:50;;;;;;;;;;;8.60;99.90;;;;;;2023671;29;19911;-71
2023/01/09 04:59:50;;;;;;;;;;;8.60;99.90;;;;;;2023807;29;19922;-71
2023/01/09 05:00:50;;;;;;;;;;;8.60;99.90;;;;;;2024489;29;20701;-71
2023/01/09 05:01:53;;;;;;;;;;;8.60;99.90;;;;;;2022625;29;19963;-71
2023/01/09 05:02:53;;;;;;;;;;;8.60;99.90;;;;;;2024803;29;20005;-71
2023/01/09 05:03:54;;;;;;;;;;;8.50;99.90;;;;;;2023690;29;20011;-71
2023/01/09 05:04:54;;;;;;;;;;;8.50;99.90;;;;;;2025445;29;19911;-71
2023/01/09 05:05:55;;;;;;;;;;;8.50;99.90;;;;;;2027067;29;20385;-71
2023/01/09 05:06:55;;;;;;;;;;;8.50;99.90;;;;;;2026128;29;19915;-71
2023/01/09 05:07:56;;;;;;;;;;;8.50;99.90;;;;;;2026553;29;19915;-71
2023/01/09 05:08:56;;;;;;;;;;;8.50;99.90;;;;;;2027407;29;19915;-70
2023/01/09 05:09:57;;;;;;;;;;;8.50;99.90;;;;;;2027620;29;19950;-71
2023/01/09 05:10:57;;;;;;;;;;;8.50;99.90;;;;;;2032201;29;20423;-71
2023/01/09 05:11:58;;;;;;;;;;;8.40;99.90;;;;;;2032450;29;19921;-71
2023/01/09 05:12:58;;;;;;;;;;;8.40;99.90;;;;;;2024687;29;20089;-71
2023/01/09 05:13:58;;;;;;;;;;;8.40;99.90;;;;;;2024962;29;19912;-71
2023/01/09 05:14:59;;;;;;;;;;;8.40;99.90;;;;;;2025279;29;20010;-71
2023/01/09 05:15:59;;;;;;;;;;;8.40;99.90;;;;;;2024108;29;19998;-71
2023/01/09 05:17:00;;;;;;;;;;;8.40;99.90;;;;;;2025554;29;19922;-71
2023/01/09 05:18:00;;;;;;;;;;;8.30;99.90;;;;;;2025744;29;20368;-71
2023/01/09 05:19:01;;;;;;;;;;;8.30;99.90;;;;;;2024751;29;19915;-71
2023/01/09 05:20:01;;;;;;;;;;;8.30;99.90;;;;;;2025276;29;19911;-71
2023/01/09 05:21:02;;;;;;;;;;;8.30;99.90;;;;;;2027629;29;19966;-71
2023/01/09 05:22:02;;;;;;;;;;;8.30;99.90;;;;;;2026928;29;20023;-71
2023/01/09 05:23:03;;;;;;;;;;;8.30;99.90;;;;;;2025448;29;19923;-71
2023/01/09 05:24:03;;;;;;;;;;;8.30;99.90;;;;;;2025099;29;19915;-71
2023/01/09 05:25:04;;;;;;;;;;;8.30;99.90;;;;;;2024393;29;20370;-71
2023/01/09 05:26:04;;;;;;;;;;;8.20;99.90;;;;;;2025472;29;19911;-71
2023/01/09 05:27:05;;;;;;;;;;;8.30;99.90;;;;;;2025721;29;19915;-71
2023/01/09 05:28:05;;;;;;;;;;;8.20;99.90;;;;;;2025642;29;19918;-71
2023/01/09 05:29:06;;;;;;;;;;;8.20;99.90;;;;;;2024972;29;19921;-71
2023/01/09 05:30:06;;;;;;;;;;;8.20;99.90;;;;;;2025146;29;19911;-71
2023/01/09 05:31:07;;;;;;;;;;;8.20;99.90;;;;;;2025193;29;19919;-71
2023/01/09 05:32:07;;;;;;;;;;;8.20;99.90;;;;;;2025464;29;19966;-70
2023/01/09 05:33:08;;;;;;;;;;;8.20;99.90;;;;;;2021339;29;19996;-70
2023/01/09 05:34:08;;;;;;;;;;;8.20;99.90;;;;;;2024804;29;19911;-70
2023/01/09 05:35:09;;;;;;;;;;;8.20;99.90;;;;;;2026358;29;20006;-70
2023/01/09 05:36:09;;;;;;;;;;;8.10;99.90;;;;;;2024257;29;19922;-71
2023/01/09 05:37:10;;;;;;;;;;;8.20;99.90;;;;;;2023791;29;19938;-71
2023/01/09 05:38:10;;;;;;;;;;;8.20;99.90;;;;;;2024685;29;19911;-70
2023/01/09 05:39:11;;;;;;;;;;;8.20;99.90;;;;;;2025745;29;19911;-71
2023/01/09 05:40:12;;;;;;;;;;;8.20;99.90;;;;;;2025715;29;19916;-70
2023/01/09 05:41:12;;;;;;;;;;;8.20;99.90;;;;;;2026103;29;19918;-70
2023/01/09 05:42:13;;;;;;;;;;;8.20;99.90;;;;;;2026958;29;19919;-71
2023/01/09 05:43:13;;;;;;;;;;;8.20;99.90;;;;;;2023836;29;20023;-71
2023/01/09 05:44:13;;;;;;;;;;;8.20;99.90;;;;;;2025671;29;19970;-71
2023/01/09 05:45:14;;;;;;;;;;;8.20;99.90;;;;;;2023797;29;19926;-71
2023/01/09 05:46:14;;;;;;;;;;;8.20;99.90;;;;;;2026053;29;19920;-71
2023/01/09 05:47:15;;;;;;;;;;;8.20;99.90;;;;;;2026327;29;19919;-71
2023/01/09 05:48:15;;;;;;;;;;;8.20;99.90;;;;;;2025111;29;19917;-71
2023/01/09 05:49:16;;;;;;;;;;;8.20;99.90;;;;;;2022526;29;20427;-71
2023/01/09 05:50:16;;;;;;;;;;;8.20;99.90;;;;;;2022383;29;19925;-71
2023/01/09 05:51:17;;;;;;;;;;;8.20;99.90;;;;;;2024132;29;19966;-71
2023/01/09 05:52:17;;;;;;;;;;;8.20;99.90;;;;;;2025445;29;19967;-71
2023/01/09 05:53:17;;;;;;;;;;;8.20;99.90;;;;;;2025476;29;21177;-71
2023/01/09 05:54:18;;;;;;;;;;;8.20;99.90;;;;;;2026909;29;19922;-71
2023/01/09 05:55:18;;;;;;;;;;;8.20;99.90;;;;;;2024172;29;19911;-71
2023/01/09 05:56:19;;;;;;;;;;;8.20;99.90;;;;;;2025891;29;20389;-71
2023/01/09 05:57:19;;;;;;;;;;;8.20;99.90;;;;;;2025811;29;19948;-71
2023/01/09 05:58:20;;;;;;;;;;;8.20;99.90;;;;;;2022875;29;20010;-71
2023/01/09 05:59:20;;;;;;;;;;;8.20;99.90;;;;;;2023879;29;19919;-71
2023/01/09 06:00:21;;;;;;;;;;;8.20;99.90;;;;;;2023308;29;19942;-71
2023/01/09 06:01:21;;;;;;;;;;;8.20;99.90;;;;;;2024036;29;20003;-71
2023/01/09 06:02:21;;;;;;;;;;;8.20;99.90;;;;;;2024197;29;19979;-71
2023/01/09 06:03:22;;;;;;;;;;;8.20;99.90;;;;;;2024983;29;19954;-71
2023/01/09 06:04:23;;;;;;;;;;;8.20;99.90;;;;;;2024837;29;19922;-71
2023/01/09 06:05:23;;;;;;;;;;;8.20;99.90;;;;;;2024624;29;20040;-71
2023/01/09 06:06:24;;;;;;;;;;;8.20;99.90;;;;;;2025175;29;20002;-71
2023/01/09 06:07:25;;;;;;;;;;;8.20;99.90;;;;;;2022749;29;19915;-71
2023/01/09 06:08:25;;;;;;;;;;;8.20;99.90;;;;;;2025069;29;19911;-71
2023/01/09 06:09:26;;;;;;;;;;;8.20;99.90;;;;;;2025533;29;19912;-71
2023/01/09 06:10:26;;;;;;;;;;;8.20;99.90;;;;;;2024326;29;20046;-71